sensor_id;sensor_type;location;lat;lon;timestamp;temperature;humidity
18408;DHT22;9330;52.210;21.174;2023-02-28T00:01:46;-3.90;99.90
18408;DHT22;9330;52.210;21.174;2023-02-28T00:04:15;-4.00;99.90
18408;DHT22;9330;52.210;21.174;2023-02-28T00:06:42;-4.00;99.90
18408;DHT22;9330;52.210;21.174;2023-02-28T00:09:09;-4.10;99.90
18408;DHT22;9330;52.210;21.174;2023-02-28T00:11:36;-4.00;99.90
18408;DHT22;9330;52.210;21.174;2023-02-28T00:14:03;-4.10;99.90
18408;DHT22;9330;52.210;21.174;2023-02-28T00:16:32;-4.20;99.90
18408;DHT22;9330;52.210;21.174;2023-02-28T00:19:12;-4.20;99.90
18408;DHT22;9330;52.210;21.174;2023-02-28T00:21:45;-4.20;99.90
18408;DHT22;9330;52.210;21.174;2023-02-28T00:24:15;-4.20;99.90
18408;DHT22;9330;52.210;21.174;2023-02-28T00:26:48;-4.20;99.90
18408;DHT22;9330;52.210;21.174;2023-02-28T00:29:17;-4.30;99.90
18408;DHT22;9330;52.210;21.174;2023-02-28T00:31:45;-4.30;99.90
18408;DHT22;9330;52.210;21.174;2023-02-28T00:34:29;-4.30;99.90
18408;DHT22;9330;52.210;21.174;2023-02-28T00:36:58;-3.80;99.90
18408;DHT22;9330;52.210;21.174;2023-02-28T00:39:25;-4.40;99.90
18408;DHT22;9330;52.210;21.174;2023-02-28T00:41:54;-4.00;99.90
18408;DHT22;9330;52.210;21.174;2023-02-28T00:44:31;-4.30;99.90
18408;DHT22;9330;52.210;21.174;2023-02-28T00:46:59;-4.50;99.90
18408;DHT22;9330;52.210;21.174;2023-02-28T00:49:29;-4.00;99.90
18408;DHT22;9330;52.210;21.174;2023-02-28T00:52:01;-4.60;99.90
18408;DHT22;9330;52.210;21.174;2023-02-28T00:54:30;-4.50;99.90
18408;DHT22;9330;52.210;21.174;2023-02-28T00:56:57;-4.20;99.90
18408;DHT22;9330;52.210;21.174;2023-02-28T00:59:30;-4.50;99.90
18408;DHT22;9330;52.210;21.174;2023-02-28T01:01:59;-4.60;99.90
18408;DHT22;9330;52.210;21.174;2023-02-28T01:04:49;-4.40;99.90
18408;DHT22;9330;52.210;21.174;2023-02-28T01:07:35;-4.30;99.90
18408;DHT22;9330;52.210;21.174;2023-02-28T01:10:09;-4.70;99.90
18408;DHT22;9330;52.210;21.174;2023-02-28T01:12:48;-4.70;99.90
18408;DHT22;9330;52.210;21.174;2023-02-28T01:15:20;-4.70;99.90
18408;DHT22;9330;52.210;21.174;2023-02-28T01:17:48;-4.70;99.90
18408;DHT22;9330;52.210;21.174;2023-02-28T01:20:19;-4.50;99.90
18408;DHT22;9330;52.210;21.174;2023-02-28T01:22:49;-4.80;99.90
18408;DHT22;9330;52.210;21.174;2023-02-28T01:25:16;-4.80;99.90
18408;DHT22;9330;52.210;21.174;2023-02-28T01:27:49;-4.80;99.90
18408;DHT22;9330;52.210;21.174;2023-02-28T01:30:29;-4.80;99.90
18408;DHT22;9330;52.210;21.174;2023-02-28T01:33:09;-4.80;99.90
18408;DHT22;9330;52.210;21.174;2023-02-28T01:35:57;-5.10;99.90
18408;DHT22;9330;52.210;21.174;2023-02-28T01:38:28;-4.90;99.90
18408;DHT22;9330;52.210;21.174;2023-02-28T01:41:00;-4.90;99.90
18408;DHT22;9330;52.210;21.174;2023-02-28T01:43:29;-4.90;99.90
18408;DHT22;9330;52.210;21.174;2023-02-28T01:45:59;-4.40;99.90
18408;DHT22;9330;52.210;21.174;2023-02-28T01:48:32;-4.90;99.90
18408;DHT22;9330;52.210;21.174;2023-02-28T01:51:04;-4.90;99.90
18408;DHT22;9330;52.210;21.174;2023-02-28T01:53:37;-4.70;99.90
18408;DHT22;9330;52.210;21.174;2023-02-28T01:56:11;-5.10;99.90
18408;DHT22;9330;52.210;21.174;2023-02-28T01:58:46;-4.60;99.90
18408;DHT22;9330;52.210;21.174;2023-02-28T02:01:14;-4.70;99.90
18408;DHT22;9330;52.210;21.174;2023-02-28T02:04:04;-5.00;99.90
18408;DHT22;9330;52.210;21.174;2023-02-28T02:06:38;-5.20;99.90
18408;DHT22;9330;52.210;21.174;2023-02-28T02:09:13;-4.80;99.90
18408;DHT22;9330;52.210;21.174;2023-02-28T02:11:42;-5.20;99.90
18408;DHT22;9330;52.210;21.174;2023-02-28T02:14:30;-5.10;99.90
18408;DHT22;9330;52.210;21.174;2023-02-28T02:17:24;-4.50;99.90
18408;DHT22;9330;52.210;21.174;2023-02-28T02:20:24;-5.20;99.90
18408;DHT22;9330;52.210;21.174;2023-02-28T02:23:19;-4.90;99.90
18408;DHT22;9330;52.210;21.174;2023-02-28T02:26:10;-5.00;99.90
18408;DHT22;9330;52.210;21.174;2023-02-28T02:29:22;-5.30;99.90
18408;DHT22;9330;52.210;21.174;2023-02-28T02:32:33;-5.20;99.90
18408;DHT22;9330;52.210;21.174;2023-02-28T02:35:25;-5.30;99.90
18408;DHT22;9330;52.210;21.174;2023-02-28T02:38:02;-5.40;99.90
18408;DHT22;9330;52.210;21.174;2023-02-28T02:40:41;-5.00;99.90
18408;DHT22;9330;52.210;21.174;2023-02-28T02:43:15;-5.40;99.90
18408;DHT22;9330;52.210;21.174;2023-02-28T02:45:49;-5.70;99.90
18408;DHT22;9330;52.210;21.174;2023-02-28T02:48:30;-5.40;99.90
18408;DHT22;9330;52.210;21.174;2023-02-28T02:51:14;-5.20;99.90
18408;DHT22;9330;52.210;21.174;2023-02-28T02:54:13;-5.40;99.90
18408;DHT22;9330;52.210;21.174;2023-02-28T02:57:00;-5.40;99.90
18408;DHT22;9330;52.210;21.174;2023-02-28T02:59:36;-5.50;99.90
18408;DHT22;9330;52.210;21.174;2023-02-28T03:02:19;-5.40;99.90
18408;DHT22;9330;52.210;21.174;2023-02-28T03:05:03;-5.50;99.90
18408;DHT22;9330;52.210;21.174;2023-02-28T03:07:49;-5.50;99.90
18408;DHT22;9330;52.210;21.174;2023-02-28T03:10:38;-5.40;99.90
18408;DHT22;9330;52.210;21.174;2023-02-28T03:13:42;-5.50;99.90
18408;DHT22;9330;52.210;21.174;2023-02-28T03:16:32;-5.40;99.90
18408;DHT22;9330;52.210;21.174;2023-02-28T03:19:35;-5.40;99.90
18408;DHT22;9330;52.210;21.174;2023-02-28T03:22:29;-5.60;99.90
18408;DHT22;9330;52.210;21.174;2023-02-28T03:25:23;-5.50;99.90
18408;DHT22;9330;52.210;21.174;2023-02-28T03:28:10;-5.60;99.90
18408;DHT22;9330;52.210;21.174;2023-02-28T03:30:45;-5.30;99.90
18408;DHT22;9330;52.210;21.174;2023-02-28T03:33:23;-5.50;99.90
18408;DHT22;9330;52.210;21.174;2023-02-28T03:35:54;-4.90;99.90
18408;DHT22;9330;52.210;21.174;2023-02-28T03:38:35;-5.10;99.90
18408;DHT22;9330;52.210;21.174;2023-02-28T03:41:13;-5.60;99.90
18408;DHT22;9330;52.210;21.174;2023-02-28T03:43:51;-5.40;99.90
18408;DHT22;9330;52.210;21.174;2023-02-28T03:46:34;-5.60;99.90
18408;DHT22;9330;52.210;21.174;2023-02-28T03:49:18;-5.60;99.90
18408;DHT22;9330;52.210;21.174;2023-02-28T03:52:20;-5.50;99.90
18408;DHT22;9330;52.210;21.174;2023-02-28T03:54:56;-5.40;99.90
18408;DHT22;9330;52.210;21.174;2023-02-28T03:57:53;-5.60;99.90
18408;DHT22;9330;52.210;21.174;2023-02-28T04:00:30;-5.70;99.90
18408;DHT22;9330;52.210;21.174;2023-02-28T04:03:04;-5.60;99.90
18408;DHT22;9330;52.210;21.174;2023-02-28T04:05:47;-5.60;99.90
18408;DHT22;9330;52.210;21.174;2023-02-28T04:08:32;-5.70;99.90
18408;DHT22;9330;52.210;21.174;2023-02-28T04:11:16;-5.70;99.90
18408;DHT22;9330;52.210;21.174;2023-02-28T04:13:57;-5.50;99.90
18408;DHT22;9330;52.210;21.174;2023-02-28T04:16:42;-5.60;99.90
18408;DHT22;9330;52.210;21.174;2023-02-28T04:19:12;-5.70;99.90
18408;DHT22;9330;52.210;21.174;2023-02-28T04:21:58;-5.70;99.90
18408;DHT22;9330;52.210;21.174;2023-02-28T04:24:50;-5.70;99.90
18408;DHT22;9330;52.210;21.174;2023-02-28T04:27:36;-5.80;99.90
18408;DHT22;9330;52.210;21.174;2023-02-28T04:30:11;-5.60;99.90
18408;DHT22;9330;52.210;21.174;2023-02-28T04:32:47;-5.90;99.90
18408;DHT22;9330;52.210;21.174;2023-02-28T04:36:10;-5.90;99.90
18408;DHT22;9330;52.210;21.174;2023-02-28T04:38:45;-5.90;99.90
18408;DHT22;9330;52.210;21.174;2023-02-28T04:41:13;-5.90;99.90
18408;DHT22;9330;52.210;21.174;2023-02-28T04:43:51;-5.80;99.90
18408;DHT22;9330;52.210;21.174;2023-02-28T04:46:32;-5.70;99.90
18408;DHT22;9330;52.210;21.174;2023-02-28T04:49:08;-5.80;99.90
18408;DHT22;9330;52.210;21.174;2023-02-28T04:55:23;-5.60;99.90
18408;DHT22;9330;52.210;21.174;2023-02-28T04:58:12;-6.00;99.90
18408;DHT22;9330;52.210;21.174;2023-02-28T05:04:44;-6.10;99.90
18408;DHT22;9330;52.210;21.174;2023-02-28T05:07:28;-6.00;99.90
18408;DHT22;9330;52.210;21.174;2023-02-28T05:10:15;-6.10;99.90
18408;DHT22;9330;52.210;21.174;2023-02-28T05:13:01;-6.00;99.90
18408;DHT22;9330;52.210;21.174;2023-02-28T05:15:34;-5.70;99.90
18408;DHT22;9330;52.210;21.174;2023-02-28T05:18:09;-6.10;99.90
18408;DHT22;9330;52.210;21.174;2023-02-28T05:21:17;-6.10;99.90
18408;DHT22;9330;52.210;21.174;2023-02-28T05:23:56;-6.10;99.90
18408;DHT22;9330;52.210;21.174;2023-02-28T05:26:29;-6.10;99.90
18408;DHT22;9330;52.210;21.174;2023-02-28T05:29:00;-6.00;99.90
18408;DHT22;9330;52.210;21.174;2023-02-28T05:31:47;-5.90;99.90
18408;DHT22;9330;52.210;21.174;2023-02-28T05:34:28;-6.00;99.90
18408;DHT22;9330;52.210;21.174;2023-02-28T05:40:02;-6.00;99.90
18408;DHT22;9330;52.210;21.174;2023-02-28T05:42:34;-5.70;99.90
18408;DHT22;9330;52.210;21.174;2023-02-28T05:45:22;-5.70;99.90
18408;DHT22;9330;52.210;21.174;2023-02-28T05:48:01;-5.90;99.90
18408;DHT22;9330;52.210;21.174;2023-02-28T05:50:37;-5.90;99.90
18408;DHT22;9330;52.210;21.174;2023-02-28T05:53:24;-5.90;99.90
18408;DHT22;9330;52.210;21.174;2023-02-28T05:56:12;-5.80;99.90
18408;DHT22;9330;52.210;21.174;2023-02-28T05:58:43;-5.80;99.90
18408;DHT22;9330;52.210;21.174;2023-02-28T06:01:35;-5.50;99.90
18408;DHT22;9330;52.210;21.174;2023-02-28T06:04:36;-5.80;99.90
18408;DHT22;9330;52.210;21.174;2023-02-28T06:07:04;-5.70;99.90
18408;DHT22;9330;52.210;21.174;2023-02-28T06:09:48;-5.30;99.90
18408;DHT22;9330;52.210;21.174;2023-02-28T06:12:19;-5.50;99.90
18408;DHT22;9330;52.210;21.174;2023-02-28T06:14:46;-5.60;99.90
18408;DHT22;9330;52.210;21.174;2023-02-28T06:17:30;-5.50;99.90
18408;DHT22;9330;52.210;21.174;2023-02-28T06:20:11;-5.50;99.90
18408;DHT22;9330;52.210;21.174;2023-02-28T06:22:39;-5.50;99.90
18408;DHT22;9330;52.210;21.174;2023-02-28T06:25:12;-5.10;99.90
18408;DHT22;9330;52.210;21.174;2023-02-28T06:27:59;-5.30;99.90
18408;DHT22;9330;52.210;21.174;2023-02-28T06:30:30;-4.60;99.90
18408;DHT22;9330;52.210;21.174;2023-02-28T06:33:00;-5.20;99.90
18408;DHT22;9330;52.210;21.174;2023-02-28T06:35:31;-5.10;99.90
18408;DHT22;9330;52.210;21.174;2023-02-28T06:38:03;-4.80;99.90
18408;DHT22;9330;52.210;21.174;2023-02-28T06:40:34;-4.90;99.90
18408;DHT22;9330;52.210;21.174;2023-02-28T06:43:10;-4.70;99.90
18408;DHT22;9330;52.210;21.174;2023-02-28T06:45:46;-4.30;99.90
18408;DHT22;9330;52.210;21.174;2023-02-28T06:48:20;-4.20;99.90
18408;DHT22;9330;52.210;21.174;2023-02-28T06:51:02;-4.00;99.90
18408;DHT22;9330;52.210;21.174;2023-02-28T06:53:42;-3.70;99.90
18408;DHT22;9330;52.210;21.174;2023-02-28T06:56:18;-3.50;99.90
18408;DHT22;9330;52.210;21.174;2023-02-28T06:58:48;-3.20;99.90
18408;DHT22;9330;52.210;21.174;2023-02-28T07:01:20;-3.00;99.90
18408;DHT22;9330;52.210;21.174;2023-02-28T07:03:48;-2.70;99.90
18408;DHT22;9330;52.210;21.174;2023-02-28T07:06:19;-2.10;99.90
18408;DHT22;9330;52.210;21.174;2023-02-28T07:08:48;-2.50;99.90
18408;DHT22;9330;52.210;21.174;2023-02-28T07:11:15;-2.00;99.90
18408;DHT22;9330;52.210;21.174;2023-02-28T07:13:42;-1.70;99.90
18408;DHT22;9330;52.210;21.174;2023-02-28T07:16:11;-1.90;99.90
18408;DHT22;9330;52.210;21.174;2023-02-28T07:18:39;-1.50;99.90
18408;DHT22;9330;52.210;21.174;2023-02-28T07:21:08;-1.50;99.90
18408;DHT22;9330;52.210;21.174;2023-02-28T07:23:36;-1.40;99.90
18408;DHT22;9330;52.210;21.174;2023-02-28T07:26:10;-1.30;99.90
18408;DHT22;9330;52.210;21.174;2023-02-28T07:28:38;-1.10;99.90
18408;DHT22;9330;52.210;21.174;2023-02-28T07:31:06;-0.90;99.90
18408;DHT22;9330;52.210;21.174;2023-02-28T07:33:34;-0.80;99.90
18408;DHT22;9330;52.210;21.174;2023-02-28T07:36:03;-0.60;99.90
18408;DHT22;9330;52.210;21.174;2023-02-28T07:38:30;-0.50;99.90
18408;DHT22;9330;52.210;21.174;2023-02-28T07:40:59;-0.30;99.90
18408;DHT22;9330;52.210;21.174;2023-02-28T07:43:26;-0.20;99.90
18408;DHT22;9330;52.210;21.174;2023-02-28T07:45:53;-0.10;99.90
18408;DHT22;9330;52.210;21.174;2023-02-28T07:48:20;0.10;99.90
18408;DHT22;9330;52.210;21.174;2023-02-28T07:50:55;0.10;99.90
18408;DHT22;9330;52.210;21.174;2023-02-28T07:53:22;0.40;99.90
18408;DHT22;9330;52.210;21.174;2023-02-28T07:55:49;0.40;99.90
18408;DHT22;9330;52.210;21.174;2023-02-28T07:58:16;0.40;99.90
18408;DHT22;9330;52.210;21.174;2023-02-28T08:00:43;0.40;99.90
18408;DHT22;9330;52.210;21.174;2023-02-28T08:03:11;0.70;99.90
18408;DHT22;9330;52.210;21.174;2023-02-28T08:05:38;0.80;99.90
18408;DHT22;9330;52.210;21.174;2023-02-28T08:08:07;0.90;99.90
18408;DHT22;9330;52.210;21.174;2023-02-28T08:10:34;1.10;99.90
18408;DHT22;9330;52.210;21.174;2023-02-28T08:13:01;1.30;99.90
18408;DHT22;9330;52.210;21.174;2023-02-28T08:15:28;1.30;99.90
18408;DHT22;9330;52.210;21.174;2023-02-28T08:17:55;1.40;99.90
18408;DHT22;9330;52.210;21.174;2023-02-28T08:20:23;1.60;99.90
18408;DHT22;9330;52.210;21.174;2023-02-28T08:22:50;1.80;99.90
18408;DHT22;9330;52.210;21.174;2023-02-28T08:25:18;2.00;99.90
18408;DHT22;9330;52.210;21.174;2023-02-28T08:27:45;2.30;99.20
18408;DHT22;9330;52.210;21.174;2023-02-28T08:30:13;2.30;99.80
18408;DHT22;9330;52.210;21.174;2023-02-28T08:32:41;2.30;94.90
18408;DHT22;9330;52.210;21.174;2023-02-28T08:35:08;2.40;97.30
18408;DHT22;9330;52.210;21.174;2023-02-28T08:37:36;2.50;95.40
18408;DHT22;9330;52.210;21.174;2023-02-28T08:40:07;2.40;95.50
18408;DHT22;9330;52.210;21.174;2023-02-28T08:42:40;2.60;93.90
18408;DHT22;9330;52.210;21.174;2023-02-28T08:45:10;2.70;93.40
18408;DHT22;9330;52.210;21.174;2023-02-28T08:47:39;2.70;92.40
18408;DHT22;9330;52.210;21.174;2023-02-28T08:50:18;2.80;90.60
18408;DHT22;9330;52.210;21.174;2023-02-28T08:52:47;2.80;87.60
18408;DHT22;9330;52.210;21.174;2023-02-28T08:55:16;2.70;88.50
18408;DHT22;9330;52.210;21.174;2023-02-28T08:57:49;3.00;88.10
18408;DHT22;9330;52.210;21.174;2023-02-28T09:00:30;2.90;84.30
18408;DHT22;9330;52.210;21.174;2023-02-28T09:03:05;3.10;86.60
18408;DHT22;9330;52.210;21.174;2023-02-28T09:05:33;3.80;91.00
18408;DHT22;9330;52.210;21.174;2023-02-28T09:08:02;3.70;80.90
18408;DHT22;9330;52.210;21.174;2023-02-28T09:10:34;4.10;80.70
18408;DHT22;9330;52.210;21.174;2023-02-28T09:13:03;4.20;77.40
18408;DHT22;9330;52.210;21.174;2023-02-28T09:15:39;4.30;82.10
18408;DHT22;9330;52.210;21.174;2023-02-28T09:18:07;4.20;68.30
18408;DHT22;9330;52.210;21.174;2023-02-28T09:20:35;4.00;68.40
18408;DHT22;9330;52.210;21.174;2023-02-28T09:23:03;3.90;69.80
18408;DHT22;9330;52.210;21.174;2023-02-28T09:25:30;3.70;68.40
18408;DHT22;9330;52.210;21.174;2023-02-28T09:27:57;3.30;69.50
18408;DHT22;9330;52.210;21.174;2023-02-28T09:30:26;3.30;74.40
18408;DHT22;9330;52.210;21.174;2023-02-28T09:32:53;2.80;73.40
18408;DHT22;9330;52.210;21.174;2023-02-28T09:35:20;2.80;90.70
18408;DHT22;9330;52.210;21.174;2023-02-28T09:37:48;3.00;82.40
18408;DHT22;9330;52.210;21.174;2023-02-28T09:40:16;3.20;83.30
18408;DHT22;9330;52.210;21.174;2023-02-28T09:42:50;2.40;83.60
18408;DHT22;9330;52.210;21.174;2023-02-28T09:45:26;2.10;79.60
18408;DHT22;9330;52.210;21.174;2023-02-28T09:47:59;2.50;90.30
18408;DHT22;9330;52.210;21.174;2023-02-28T09:50:35;2.00;84.90
18408;DHT22;9330;52.210;21.174;2023-02-28T09:53:10;2.00;90.50
18408;DHT22;9330;52.210;21.174;2023-02-28T09:55:44;2.10;93.20
18408;DHT22;9330;52.210;21.174;2023-02-28T09:58:22;2.10;90.30
18408;DHT22;9330;52.210;21.174;2023-02-28T10:00:58;2.00;90.80
18408;DHT22;9330;52.210;21.174;2023-02-28T10:03:30;1.90;88.70
18408;DHT22;9330;52.210;21.174;2023-02-28T10:06:08;1.80;94.70
18408;DHT22;9330;52.210;21.174;2023-02-28T10:08:47;2.40;91.60
18408;DHT22;9330;52.210;21.174;2023-02-28T10:11:19;2.00;93.70
18408;DHT22;9330;52.210;21.174;2023-02-28T10:13:54;1.80;92.80
18408;DHT22;9330;52.210;21.174;2023-02-28T10:19:55;1.90;90.70
18408;DHT22;9330;52.210;21.174;2023-02-28T10:22:26;1.90;89.10
18408;DHT22;9330;52.210;21.174;2023-02-28T10:25:00;1.60;90.30
18408;DHT22;9330;52.210;21.174;2023-02-28T10:27:37;1.80;90.70
18408;DHT22;9330;52.210;21.174;2023-02-28T10:30:09;1.70;93.70
18408;DHT22;9330;52.210;21.174;2023-02-28T10:32:44;1.90;92.30
18408;DHT22;9330;52.210;21.174;2023-02-28T10:35:19;1.80;90.10
18408;DHT22;9330;52.210;21.174;2023-02-28T10:37:56;1.90;93.10
18408;DHT22;9330;52.210;21.174;2023-02-28T10:40:42;1.90;91.60
18408;DHT22;9330;52.210;21.174;2023-02-28T10:43:24;1.90;90.60
18408;DHT22;9330;52.210;21.174;2023-02-28T10:46:13;2.10;90.90
18408;DHT22;9330;52.210;21.174;2023-02-28T10:49:04;2.60;92.80
18408;DHT22;9330;52.210;21.174;2023-02-28T10:52:01;2.20;95.30
18408;DHT22;9330;52.210;21.174;2023-02-28T10:54:32;2.30;90.00
18408;DHT22;9330;52.210;21.174;2023-02-28T10:57:19;2.30;88.60
18408;DHT22;9330;52.210;21.174;2023-02-28T10:59:51;2.20;92.30
18408;DHT22;9330;52.210;21.174;2023-02-28T11:02:51;2.20;93.80
18408;DHT22;9330;52.210;21.174;2023-02-28T11:11:49;2.30;88.80
18408;DHT22;9330;52.210;21.174;2023-02-28T11:14:35;2.40;91.90
18408;DHT22;9330;52.210;21.174;2023-02-28T11:17:21;2.30;90.90
18408;DHT22;9330;52.210;21.174;2023-02-28T11:22:27;2.30;88.10
18408;DHT22;9330;52.210;21.174;2023-02-28T11:25:09;2.70;88.70
18408;DHT22;9330;52.210;21.174;2023-02-28T11:27:56;2.30;92.70
18408;DHT22;9330;52.210;21.174;2023-02-28T11:30:35;2.60;91.20
18408;DHT22;9330;52.210;21.174;2023-02-28T11:33:27;2.50;92.10
18408;DHT22;9330;52.210;21.174;2023-02-28T11:36:12;2.70;90.30
18408;DHT22;9330;52.210;21.174;2023-02-28T11:39:10;2.60;85.60
18408;DHT22;9330;52.210;21.174;2023-02-28T12:01:49;3.30;78.90
18408;DHT22;9330;52.210;21.174;2023-02-28T12:04:41;3.70;83.70
18408;DHT22;9330;52.210;21.174;2023-02-28T12:07:18;3.40;84.50
18408;DHT22;9330;52.210;21.174;2023-02-28T12:09:58;3.50;80.30
18408;DHT22;9330;52.210;21.174;2023-02-28T12:12:39;3.60;76.90
18408;DHT22;9330;52.210;21.174;2023-02-28T12:15:32;3.70;79.00
18408;DHT22;9330;52.210;21.174;2023-02-28T12:18:29;3.80;74.90
18408;DHT22;9330;52.210;21.174;2023-02-28T12:21:01;3.90;73.00
18408;DHT22;9330;52.210;21.174;2023-02-28T12:26:32;4.40;77.70
18408;DHT22;9330;52.210;21.174;2023-02-28T12:29:16;4.50;69.70
18408;DHT22;9330;52.210;21.174;2023-02-28T12:31:51;4.80;67.30
18408;DHT22;9330;52.210;21.174;2023-02-28T12:34:24;4.80;66.20
18408;DHT22;9330;52.210;21.174;2023-02-28T12:36:54;4.60;64.20
18408;DHT22;9330;52.210;21.174;2023-02-28T12:39:26;4.50;62.50
18408;DHT22;9330;52.210;21.174;2023-02-28T12:41:59;4.30;67.20
18408;DHT22;9330;52.210;21.174;2023-02-28T12:44:33;4.20;65.20
18408;DHT22;9330;52.210;21.174;2023-02-28T12:47:04;4.10;65.70
18408;DHT22;9330;52.210;21.174;2023-02-28T12:49:35;3.90;68.00
18408;DHT22;9330;52.210;21.174;2023-02-28T12:52:04;3.70;71.60
18408;DHT22;9330;52.210;21.174;2023-02-28T12:54:38;3.60;72.30
18408;DHT22;9330;52.210;21.174;2023-02-28T12:57:12;3.60;69.80
18408;DHT22;9330;52.210;21.174;2023-02-28T12:59:44;3.50;72.90
18408;DHT22;9330;52.210;21.174;2023-02-28T13:02:41;3.50;71.10
18408;DHT22;9330;52.210;21.174;2023-02-28T13:11:32;3.60;71.70
18408;DHT22;9330;52.210;21.174;2023-02-28T13:14:01;3.50;71.60
18408;DHT22;9330;52.210;21.174;2023-02-28T13:16:49;3.50;75.00
18408;DHT22;9330;52.210;21.174;2023-02-28T13:19:18;3.50;73.70
18408;DHT22;9330;52.210;21.174;2023-02-28T13:21:49;3.50;75.80
18408;DHT22;9330;52.210;21.174;2023-02-28T13:24:42;3.50;77.50
18408;DHT22;9330;52.210;21.174;2023-02-28T13:27:34;3.50;70.60
18408;DHT22;9330;52.210;21.174;2023-02-28T13:33:28;3.60;72.80
18408;DHT22;9330;52.210;21.174;2023-02-28T13:36:12;3.60;72.00
18408;DHT22;9330;52.210;21.174;2023-02-28T13:38:51;3.50;73.30
18408;DHT22;9330;52.210;21.174;2023-02-28T13:44:22;3.60;70.70
18408;DHT22;9330;52.210;21.174;2023-02-28T13:47:19;3.60;68.30
18408;DHT22;9330;52.210;21.174;2023-02-28T13:49:49;3.40;70.00
18408;DHT22;9330;52.210;21.174;2023-02-28T13:52:20;3.60;70.80
18408;DHT22;9330;52.210;21.174;2023-02-28T13:57:48;3.70;67.30
18408;DHT22;9330;52.210;21.174;2023-02-28T14:00:28;3.50;70.20
18408;DHT22;9330;52.210;21.174;2023-02-28T14:06:17;3.40;68.30
18408;DHT22;9330;52.210;21.174;2023-02-28T14:08:54;3.50;68.20
18408;DHT22;9330;52.210;21.174;2023-02-28T14:11:30;3.40;70.00
18408;DHT22;9330;52.210;21.174;2023-02-28T14:13:58;3.50;67.50
18408;DHT22;9330;52.210;21.174;2023-02-28T14:16:26;3.40;69.80
18408;DHT22;9330;52.210;21.174;2023-02-28T14:18:58;3.40;68.70
18408;DHT22;9330;52.210;21.174;2023-02-28T14:21:27;3.30;71.80
18408;DHT22;9330;52.210;21.174;2023-02-28T14:24:20;3.40;71.50
18408;DHT22;9330;52.210;21.174;2023-02-28T14:27:05;3.40;70.20
18408;DHT22;9330;52.210;21.174;2023-02-28T14:29:59;3.40;73.10
18408;DHT22;9330;52.210;21.174;2023-02-28T14:32:33;3.40;69.40
18408;DHT22;9330;52.210;21.174;2023-02-28T14:35:10;3.40;71.10
18408;DHT22;9330;52.210;21.174;2023-02-28T14:37:41;3.40;70.80
18408;DHT22;9330;52.210;21.174;2023-02-28T14:40:14;3.40;70.20
18408;DHT22;9330;52.210;21.174;2023-02-28T14:42:47;3.30;74.70
18408;DHT22;9330;52.210;21.174;2023-02-28T14:45:18;3.30;72.90
18408;DHT22;9330;52.210;21.174;2023-02-28T14:47:46;3.60;70.20
18408;DHT22;9330;52.210;21.174;2023-02-28T14:50:18;3.30;69.20
18408;DHT22;9330;52.210;21.174;2023-02-28T14:52:46;3.40;67.90
18408;DHT22;9330;52.210;21.174;2023-02-28T14:55:16;3.30;70.30
18408;DHT22;9330;52.210;21.174;2023-02-28T14:57:52;3.30;68.40
18408;DHT22;9330;52.210;21.174;2023-02-28T15:00:23;3.60;67.90
18408;DHT22;9330;52.210;21.174;2023-02-28T15:02:50;3.30;70.70
18408;DHT22;9330;52.210;21.174;2023-02-28T15:05:27;3.10;71.20
18408;DHT22;9330;52.210;21.174;2023-02-28T15:08:11;3.20;73.60
18408;DHT22;9330;52.210;21.174;2023-02-28T15:10:39;3.10;73.90
18408;DHT22;9330;52.210;21.174;2023-02-28T15:13:12;3.20;74.10
18408;DHT22;9330;52.210;21.174;2023-02-28T15:15:43;3.10;75.40
18408;DHT22;9330;52.210;21.174;2023-02-28T15:18:17;3.10;77.70
18408;DHT22;9330;52.210;21.174;2023-02-28T15:20:47;3.00;77.10
18408;DHT22;9330;52.210;21.174;2023-02-28T15:23:15;3.00;77.70
18408;DHT22;9330;52.210;21.174;2023-02-28T15:25:42;3.10;76.20
18408;DHT22;9330;52.210;21.174;2023-02-28T15:28:15;2.90;76.70
18408;DHT22;9330;52.210;21.174;2023-02-28T15:30:52;2.90;77.10
18408;DHT22;9330;52.210;21.174;2023-02-28T15:33:21;2.80;80.90
18408;DHT22;9330;52.210;21.174;2023-02-28T15:35:49;2.80;85.70
18408;DHT22;9330;52.210;21.174;2023-02-28T15:38:22;2.70;87.00
18408;DHT22;9330;52.210;21.174;2023-02-28T15:40:51;2.70;87.60
18408;DHT22;9330;52.210;21.174;2023-02-28T15:43:28;2.50;89.00
18408;DHT22;9330;52.210;21.174;2023-02-28T15:46:00;2.50;90.80
18408;DHT22;9330;52.210;21.174;2023-02-28T15:48:29;2.30;92.70
18408;DHT22;9330;52.210;21.174;2023-02-28T15:51:01;2.40;93.80
18408;DHT22;9330;52.210;21.174;2023-02-28T15:53:31;2.10;94.80
18408;DHT22;9330;52.210;21.174;2023-02-28T15:56:01;2.00;94.70
18408;DHT22;9330;52.210;21.174;2023-02-28T15:58:30;1.90;94.90
18408;DHT22;9330;52.210;21.174;2023-02-28T16:01:17;1.80;96.70
18408;DHT22;9330;52.210;21.174;2023-02-28T16:03:47;1.70;96.30
18408;DHT22;9330;52.210;21.174;2023-02-28T16:06:33;1.60;97.30
18408;DHT22;9330;52.210;21.174;2023-02-28T16:09:01;1.40;98.20
18408;DHT22;9330;52.210;21.174;2023-02-28T16:11:28;1.30;99.20
18408;DHT22;9330;52.210;21.174;2023-02-28T16:13:57;1.30;99.90
18408;DHT22;9330;52.210;21.174;2023-02-28T16:16:25;1.10;99.90
18408;DHT22;9330;52.210;21.174;2023-02-28T16:18:52;1.20;99.90
18408;DHT22;9330;52.210;21.174;2023-02-28T16:21:20;0.90;99.90
18408;DHT22;9330;52.210;21.174;2023-02-28T16:23:47;1.40;99.90
18408;DHT22;9330;52.210;21.174;2023-02-28T16:26:20;0.70;99.90
18408;DHT22;9330;52.210;21.174;2023-02-28T16:28:47;0.60;99.90
18408;DHT22;9330;52.210;21.174;2023-02-28T16:31:16;0.50;99.90
18408;DHT22;9330;52.210;21.174;2023-02-28T16:33:44;0.40;99.90
18408;DHT22;9330;52.210;21.174;2023-02-28T16:36:14;0.20;99.90
18408;DHT22;9330;52.210;21.174;2023-02-28T16:38:41;0.20;99.90
18408;DHT22;9330;52.210;21.174;2023-02-28T16:41:12;0.10;99.90
18408;DHT22;9330;52.210;21.174;2023-02-28T16:43:45;0.00;99.90
18408;DHT22;9330;52.210;21.174;2023-02-28T16:46:12;-0.10;99.90
18408;DHT22;9330;52.210;21.174;2023-02-28T16:48:41;-0.20;99.90
18408;DHT22;9330;52.210;21.174;2023-02-28T16:51:11;-0.20;99.90
18408;DHT22;9330;52.210;21.174;2023-02-28T16:53:38;-0.30;99.90
18408;DHT22;9330;52.210;21.174;2023-02-28T16:56:05;-0.20;99.90
18408;DHT22;9330;52.210;21.174;2023-02-28T16:58:33;-0.40;99.90
18408;DHT22;9330;52.210;21.174;2023-02-28T17:01:04;-0.40;99.90
18408;DHT22;9330;52.210;21.174;2023-02-28T17:03:32;-0.60;99.90
18408;DHT22;9330;52.210;21.174;2023-02-28T17:06:03;-0.60;99.90
18408;DHT22;9330;52.210;21.174;2023-02-28T17:08:31;-0.60;99.90
18408;DHT22;9330;52.210;21.174;2023-02-28T17:10:58;-0.50;99.90
18408;DHT22;9330;52.210;21.174;2023-02-28T17:13:25;-0.60;99.90
18408;DHT22;9330;52.210;21.174;2023-02-28T17:15:52;-0.60;99.90
18408;DHT22;9330;52.210;21.174;2023-02-28T17:18:20;-0.70;99.90
18408;DHT22;9330;52.210;21.174;2023-02-28T17:20:48;-0.80;99.90
18408;DHT22;9330;52.210;21.174;2023-02-28T17:23:16;-0.80;99.90
18408;DHT22;9330;52.210;21.174;2023-02-28T17:25:44;-0.80;99.90
18408;DHT22;9330;52.210;21.174;2023-02-28T17:28:19;-0.80;99.90
18408;DHT22;9330;52.210;21.174;2023-02-28T17:30:46;-0.80;99.90
18408;DHT22;9330;52.210;21.174;2023-02-28T17:33:14;-0.90;99.90
18408;DHT22;9330;52.210;21.174;2023-02-28T17:35:40;-1.00;99.90